createdAt,value
2023-01-17T00:00:56.684Z,83.99
2023-01-17T00:04:01.973Z,83.57
2023-01-17T00:07:06.258Z,83.35
2023-01-17T00:09:54.444Z,83.78
2023-01-17T00:12:39.717Z,84.05
2023-01-17T00:15:26.528Z,84.63
2023-01-17T00:18:11.499Z,84.03
2023-01-17T00:21:15.076Z,83.42
2023-01-17T00:24:18.940Z,84.03
2023-01-17T00:27:13.281Z,83.64
2023-01-17T00:29:58.079Z,83.76
2023-01-17T00:32:43.116Z,83.52
2023-01-17T00:35:30.054Z,84.25
2023-01-17T00:38:21.592Z,83.83
2023-01-17T00:41:12.903Z,84.27
2023-01-17T00:44:16.829Z,84.78
2023-01-17T00:47:20.602Z,85.04
2023-01-17T00:50:24.549Z,84.95
2023-01-17T00:53:28.389Z,85.44
2023-01-17T00:56:32.165Z,85.79
2023-01-17T00:59:35.956Z,85.48
2023-01-17T01:02:40.674Z,85.60
2023-01-17T01:05:44.379Z,85.82
2023-01-17T01:08:49.314Z,86.21
2023-01-17T01:11:53.704Z,86.16
2023-01-17T01:14:57.522Z,86.12
2023-01-17T01:18:03.524Z,85.84
2023-01-17T01:21:07.359Z,85.92
2023-01-17T01:24:11.266Z,86.12
2023-01-17T01:27:15.719Z,86.57
2023-01-17T01:30:19.493Z,87.29
2023-01-17T01:33:21.216Z,86.39
2023-01-17T01:36:09.030Z,87.34
2023-01-17T01:38:54.503Z,86.88
2023-01-17T01:41:39.954Z,87.03
2023-01-17T01:44:44.910Z,86.87
2023-01-17T01:47:35.567Z,87.54
2023-01-17T01:50:21.348Z,87.16
2023-01-17T01:53:07.851Z,86.50
2023-01-17T01:55:53.109Z,86.30
2023-01-17T01:58:40.501Z,86.41
2023-01-17T02:01:25.797Z,86.78
2023-01-17T02:04:11.485Z,86.75
2023-01-17T02:07:03.945Z,86.14
2023-01-17T02:09:48.855Z,86.72
2023-01-17T02:12:34.631Z,86.14
2023-01-17T02:15:27.785Z,86.20
2023-01-17T02:18:26.265Z,86.65
2023-01-17T02:21:28.152Z,86.25
2023-01-17T02:24:33.002Z,87.09
2023-01-17T02:27:42.783Z,86.21
2023-01-17T02:30:33.528Z,86.93
2023-01-17T02:33:36.960Z,86.75
2023-01-17T02:36:44.859Z,86.37
2023-01-17T02:39:40.038Z,86.28
2023-01-17T02:42:31.504Z,86.53
2023-01-17T02:45:18.749Z,85.99
2023-01-17T02:48:08.218Z,86.05
2023-01-17T02:51:21.075Z,85.50
2023-01-17T02:54:15.350Z,85.82
2023-01-17T02:57:46.680Z,85.56
2023-01-17T03:00:42.277Z,85.13
2023-01-17T03:03:47.066Z,85.17
2023-01-17T03:06:37.656Z,85.29
2023-01-17T03:09:25.426Z,86.06
2023-01-17T03:12:10.586Z,85.33
2023-01-17T03:14:55.627Z,85.82
2023-01-17T03:17:46.551Z,85.82
2023-01-17T03:20:32.033Z,85.52
2023-01-17T03:23:16.966Z,86.01
2023-01-17T03:26:01.935Z,86.26
2023-01-17T03:28:47.208Z,85.55
2023-01-17T03:31:32.564Z,86.47
2023-01-17T03:34:17.760Z,86.35
2023-01-17T03:37:02.568Z,85.80
2023-01-17T03:39:47.467Z,85.44
2023-01-17T03:42:32.289Z,85.70
2023-01-17T03:45:17.352Z,86.03
2023-01-17T03:48:02.490Z,85.80
2023-01-17T03:50:51.487Z,86.32
2023-01-17T03:53:36.410Z,86.39
2023-01-17T03:56:21.358Z,85.92
2023-01-17T03:59:06.148Z,85.66
2023-01-17T04:01:51.355Z,85.83
2023-01-17T04:04:36.240Z,85.70
2023-01-17T04:07:23.038Z,86.00
2023-01-17T04:10:08.838Z,85.63
2023-01-17T04:12:54.189Z,85.63
2023-01-17T04:15:39.611Z,85.60
2023-01-17T04:18:25.424Z,85.39
2023-01-17T04:21:10.657Z,84.90
2023-01-17T04:23:55.723Z,85.26
2023-01-17T04:26:41.090Z,84.92
2023-01-17T04:29:26.082Z,85.15
2023-01-17T04:32:11.277Z,84.97
2023-01-17T04:34:56.548Z,85.47
2023-01-17T04:37:41.319Z,85.11
2023-01-17T04:40:26.504Z,84.94
2023-01-17T04:43:11.630Z,84.90
2023-01-17T04:45:58.088Z,84.85
2023-01-17T04:48:43.135Z,84.56
2023-01-17T04:51:28.017Z,84.66
2023-01-17T04:54:12.817Z,85.47
2023-01-17T04:56:58.078Z,85.51
2023-01-17T04:59:44.218Z,84.93
2023-01-17T05:02:29.148Z,85.08
2023-01-17T05:05:14.558Z,85.75
2023-01-17T05:07:59.908Z,85.40
2023-01-17T05:10:46.177Z,85.67
2023-01-17T05:13:31.427Z,85.94
2023-01-17T05:16:19.729Z,85.85
2023-01-17T05:19:04.632Z,85.13
2023-01-17T05:21:49.835Z,85.38
2023-01-17T05:24:34.891Z,85.63
2023-01-17T05:27:19.853Z,85.09
2023-01-17T05:30:05.469Z,85.06
2023-01-17T05:32:52.291Z,85.07
2023-01-17T05:35:38.148Z,84.33
2023-01-17T05:38:23.791Z,84.39
2023-01-17T05:41:09.060Z,84.39
2023-01-17T05:43:53.927Z,84.81
2023-01-17T05:46:38.739Z,84.54
2023-01-17T05:49:23.941Z,84.13
2023-01-17T05:52:09.749Z,85.01
2023-01-17T05:54:55.066Z,85.52
2023-01-17T05:57:39.952Z,85.84
2023-01-17T06:00:25.387Z,86.24
2023-01-17T06:03:11.275Z,86.26
2023-01-17T06:05:56.494Z,87.24
2023-01-17T06:08:41.406Z,87.43
2023-01-17T06:11:26.963Z,87.33
2023-01-17T06:14:12.473Z,87.08
2023-01-17T06:16:57.349Z,86.96
2023-01-17T06:19:42.322Z,87.41
2023-01-17T06:22:27.345Z,86.82
2023-01-17T06:25:12.996Z,87.20
2023-01-17T06:27:58.122Z,86.68
2023-01-17T06:30:43.864Z,85.97
2023-01-17T06:33:28.698Z,85.63
2023-01-17T06:36:14.982Z,85.46
2023-01-17T06:38:59.844Z,86.18
2023-01-17T06:41:44.724Z,86.19
2023-01-17T06:44:29.696Z,86.20
2023-01-17T06:47:14.538Z,86.62
2023-01-17T06:50:01.201Z,85.82
2023-01-17T06:52:59.511Z,86.37
2023-01-17T06:55:44.335Z,85.97
2023-01-17T06:58:29.565Z,86.08
2023-01-17T07:01:14.659Z,85.62
2023-01-17T07:04:00.349Z,85.72
2023-01-17T07:06:45.415Z,85.41
2023-01-17T07:09:30.302Z,85.88
2023-01-17T07:12:15.200Z,85.59
2023-01-17T07:14:59.972Z,85.71
2023-01-17T07:17:44.950Z,86.44
2023-01-17T07:20:30.637Z,85.93
2023-01-17T07:23:15.859Z,86.00
2023-01-17T07:26:01.160Z,85.50
2023-01-17T07:28:46.295Z,85.73
2023-01-17T07:31:39.322Z,85.78
2023-01-17T07:34:24.171Z,85.67
2023-01-17T07:37:09.001Z,85.65
2023-01-17T07:39:54.561Z,86.48
2023-01-17T07:42:39.340Z,86.74
2023-01-17T07:45:24.215Z,86.32
2023-01-17T07:48:09.106Z,86.56
2023-01-17T07:50:56.789Z,86.23
2023-01-17T07:53:42.017Z,85.66
2023-01-17T07:56:26.738Z,86.23
2023-01-17T07:59:11.690Z,87.26
2023-01-17T08:01:56.859Z,87.41
2023-01-17T08:04:42.005Z,86.98
2023-01-17T08:07:26.867Z,86.51
2023-01-17T08:10:13.299Z,86.62
2023-01-17T08:12:58.540Z,86.97
2023-01-17T08:15:43.707Z,87.21
2023-01-17T08:18:30.091Z,87.55
2023-01-17T08:21:16.735Z,87.13
2023-01-17T08:24:01.904Z,87.38
2023-01-17T08:26:46.609Z,87.42
2023-01-17T08:29:31.781Z,87.13
2023-01-17T08:32:17.040Z,86.84
2023-01-17T08:35:02.290Z,86.93
2023-01-17T08:37:47.933Z,87.02
2023-01-17T08:40:33.402Z,87.24
2023-01-17T08:43:18.695Z,86.95
2023-01-17T08:46:06.158Z,86.89
2023-01-17T08:48:56.413Z,86.61
2023-01-17T08:51:41.695Z,86.71
2023-01-17T08:54:26.966Z,87.17
2023-01-17T08:57:11.809Z,86.39
2023-01-17T08:59:56.628Z,86.15
2023-01-17T09:02:41.432Z,85.83
2023-01-17T09:05:28.491Z,86.14
2023-01-17T09:08:13.385Z,85.83
2023-01-17T09:10:59.698Z,85.83
2023-01-17T09:13:44.684Z,84.72
2023-01-17T09:16:30.472Z,84.32
2023-01-17T09:19:15.469Z,85.63
2023-01-17T09:22:00.295Z,84.60
2023-01-17T09:24:45.375Z,84.73
2023-01-17T09:27:30.599Z,84.19
2023-01-17T09:30:15.958Z,83.33
2023-01-17T09:33:00.898Z,83.96
2023-01-17T09:35:46.705Z,82.52
2023-01-17T09:38:32.219Z,82.98
2023-01-17T09:41:23.638Z,82.80
2023-01-17T09:44:47.130Z,83.08
2023-01-17T09:47:39.195Z,81.79
2023-01-17T09:50:43.526Z,82.05
2023-01-17T09:53:33.839Z,81.54
2023-01-17T09:56:31.042Z,80.90
2023-01-17T09:59:35.390Z,80.10
2023-01-17T10:02:41.816Z,81.11
2023-01-17T10:05:33.952Z,80.35
2023-01-17T10:08:27.804Z,81.15
2023-01-17T10:11:18.711Z,80.79
2023-01-17T10:14:22.255Z,80.03
2023-01-17T10:17:24.356Z,79.53
2023-01-17T10:20:33.789Z,78.42
2023-01-17T10:23:34.940Z,77.22
2023-01-17T10:26:27.327Z,78.25
2023-01-17T10:29:20.164Z,75.59
2023-01-17T10:32:06.490Z,77.11
2023-01-17T10:34:52.608Z,77.04
2023-01-17T10:37:43.935Z,76.26
2023-01-17T10:40:57.380Z,75.98
2023-01-17T10:43:56.112Z,74.75
2023-01-17T10:46:56.498Z,73.91
2023-01-17T10:49:46.875Z,74.77
2023-01-17T10:52:45.144Z,73.49
2023-01-17T10:55:43.899Z,73.21
2023-01-17T10:58:28.880Z,72.87
2023-01-17T11:01:20.944Z,72.25
2023-01-17T11:04:18.248Z,71.26
2023-01-17T11:07:17.378Z,73.59
2023-01-17T11:10:02.125Z,73.08
2023-01-17T11:12:47.261Z,74.09
2023-01-17T11:15:38.076Z,71.79
2023-01-17T11:18:27.394Z,71.86
2023-01-17T11:21:23.228Z,71.68
2023-01-17T11:24:16.855Z,71.58
2023-01-17T11:27:05.379Z,71.87
2023-01-17T11:30:18.086Z,71.78
2023-01-17T11:33:06.959Z,69.51
2023-01-17T11:35:52.107Z,70.49
2023-01-17T11:38:38.748Z,69.51
2023-01-17T11:41:25.485Z,68.87
2023-01-17T11:44:27.162Z,67.63
2023-01-17T11:47:12.016Z,67.06
2023-01-17T11:49:58.652Z,64.70
2023-01-17T11:52:44.053Z,64.16
2023-01-17T11:55:28.822Z,62.55
2023-01-17T11:58:15.233Z,60.48
2023-01-17T12:01:13.063Z,57.16
2023-01-17T12:04:39.514Z,55.70
2023-01-17T12:07:54.360Z,55.13
2023-01-17T12:11:08.599Z,53.69
2023-01-17T12:14:20.676Z,54.38
2023-01-17T12:17:34.671Z,58.21
2023-01-17T12:20:41.389Z,59.11
2023-01-17T12:23:38.070Z,60.42
2023-01-17T12:26:29.146Z,60.70
2023-01-17T12:29:38.801Z,61.80
2023-01-17T12:32:55.261Z,63.01
2023-01-17T12:35:50.771Z,62.45
2023-01-17T12:38:38.558Z,61.72
2023-01-17T12:41:36.664Z,62.30
2023-01-17T12:44:37.281Z,64.11
2023-01-17T12:47:22.241Z,65.07
2023-01-17T12:50:21.156Z,63.65
2023-01-17T12:53:29.079Z,63.92
2023-01-17T12:56:27.944Z,64.48
2023-01-17T12:59:19.891Z,63.72
2023-01-17T13:02:20.395Z,65.01
2023-01-17T13:05:34.349Z,64.00
2023-01-17T13:08:48.254Z,64.28
2023-01-17T13:11:45.858Z,64.52
2023-01-17T13:14:30.847Z,64.08
2023-01-17T13:17:39.262Z,65.56
2023-01-17T13:20:32.959Z,62.99
2023-01-17T13:24:03.953Z,62.70
2023-01-17T13:26:55.545Z,62.48
2023-01-17T13:30:04.540Z,61.87
2023-01-17T13:33:06.932Z,63.22
2023-01-17T13:36:25.355Z,62.51
2023-01-17T13:39:52.119Z,64.62
2023-01-17T13:42:58.222Z,66.55
2023-01-17T13:45:55.945Z,63.68
2023-01-17T13:48:41.166Z,63.04
2023-01-17T13:52:01.308Z,62.64
2023-01-17T13:54:51.705Z,65.08
2023-01-17T13:57:46.037Z,63.67
2023-01-17T14:00:49.294Z,62.81
2023-01-17T14:03:57.687Z,64.78
2023-01-17T14:06:53.231Z,64.76
2023-01-17T14:09:44.827Z,62.83
2023-01-17T14:12:33.229Z,62.93
2023-01-17T14:15:25.322Z,62.73
2023-01-17T14:18:38.302Z,64.86
2023-01-17T14:21:28.564Z,64.43
2023-01-17T14:24:15.972Z,63.53
2023-01-17T14:27:16.385Z,67.05
2023-01-17T14:30:04.898Z,64.97
2023-01-17T14:33:00.095Z,64.70
2023-01-17T14:36:06.585Z,65.27
2023-01-17T14:38:52.101Z,65.41
2023-01-17T14:41:37.498Z,71.78
2023-01-17T14:44:23.687Z,67.50
2023-01-17T14:47:13.862Z,66.09
2023-01-17T14:50:17.426Z,66.31
2023-01-17T14:53:11.997Z,67.00
2023-01-17T14:55:58.752Z,66.80
2023-01-17T14:58:46.368Z,66.24
2023-01-17T15:01:32.531Z,64.88
2023-01-17T15:04:26.943Z,68.22
2023-01-17T15:07:16.882Z,67.66
2023-01-17T15:10:03.727Z,68.38
2023-01-17T15:12:48.522Z,66.63
2023-01-17T15:15:37.267Z,66.37
2023-01-17T15:18:30.023Z,66.44
2023-01-17T15:21:19.222Z,67.47
2023-01-17T15:24:08.661Z,69.45
2023-01-17T15:26:54.509Z,69.45
2023-01-17T15:29:40.284Z,72.73
2023-01-17T15:32:34.335Z,72.11
2023-01-17T15:35:20.550Z,69.54
2023-01-17T15:38:05.596Z,71.44
2023-01-17T15:40:50.857Z,70.54
2023-01-17T15:43:36.087Z,73.06
2023-01-17T15:46:23.819Z,71.62
2023-01-17T15:49:17.384Z,68.55
2023-01-17T15:52:04.722Z,69.08
2023-01-17T15:54:53.292Z,68.51
2023-01-17T15:57:38.831Z,71.77
2023-01-17T16:00:46.992Z,70.03
2023-01-17T16:03:32.228Z,74.12
2023-01-17T16:06:49.687Z,71.15
2023-01-17T16:09:44.633Z,69.41
2023-01-17T16:12:29.723Z,76.02
2023-01-17T16:15:18.295Z,72.02
2023-01-17T16:18:08.769Z,72.58
2023-01-17T16:21:00.411Z,71.00
2023-01-17T16:23:45.831Z,71.13
2023-01-17T16:26:31.168Z,74.94
2023-01-17T16:29:17.727Z,70.97
2023-01-17T16:32:08.645Z,71.26
2023-01-17T16:34:53.801Z,70.77
2023-01-17T16:37:41.335Z,79.14
2023-01-17T16:40:30.095Z,77.85
2023-01-17T16:43:17.472Z,70.87
2023-01-17T16:46:02.335Z,74.63
2023-01-17T16:48:47.204Z,77.67
2023-01-17T16:51:32.336Z,78.08
2023-01-17T16:54:17.741Z,78.92
2023-01-17T16:57:04.047Z,71.04
2023-01-17T16:59:50.840Z,72.55
2023-01-17T17:02:38.417Z,72.43
2023-01-17T17:05:23.512Z,75.78
2023-01-17T17:08:08.396Z,77.48
2023-01-17T17:10:53.327Z,77.30
2023-01-17T17:13:39.381Z,78.17
2023-01-17T17:16:33.773Z,71.17
2023-01-17T17:19:19.973Z,71.72
2023-01-17T17:22:06.411Z,71.37
2023-01-17T17:24:51.469Z,77.55
2023-01-17T17:27:37.150Z,71.85
2023-01-17T17:30:25.782Z,72.89
2023-01-17T17:33:10.650Z,73.01
2023-01-17T17:35:56.183Z,76.06
2023-01-17T17:38:53.440Z,73.00
2023-01-17T17:41:42.397Z,76.22
2023-01-17T17:44:27.696Z,79.08
2023-01-17T17:47:13.153Z,76.37
2023-01-17T17:49:58.492Z,76.80
2023-01-17T17:52:44.028Z,76.80
2023-01-17T17:55:29.267Z,74.67
2023-01-17T17:58:14.195Z,73.65
2023-01-17T18:01:04.042Z,73.44
2023-01-17T18:03:48.979Z,78.24
2023-01-17T18:06:35.191Z,79.00
2023-01-17T18:09:20.460Z,78.50
2023-01-17T18:12:05.999Z,75.65
2023-01-17T18:14:52.367Z,75.33
2023-01-17T18:17:37.504Z,75.04
2023-01-17T18:20:22.381Z,77.37
2023-01-17T18:23:11.107Z,77.41
2023-01-17T18:25:56.148Z,79.32
2023-01-17T18:28:40.785Z,73.04
2023-01-17T18:31:27.759Z,75.26
2023-01-17T18:34:16.473Z,74.10
2023-01-17T18:37:01.404Z,72.69
2023-01-17T18:39:46.734Z,76.25
2023-01-17T18:42:32.066Z,75.67
2023-01-17T18:45:20.377Z,81.43
2023-01-17T18:48:05.905Z,78.83
2023-01-17T18:51:00.116Z,76.72
2023-01-17T18:53:45.968Z,77.63
2023-01-17T18:56:34.674Z,76.71
2023-01-17T18:59:21.343Z,75.33
2023-01-17T19:02:09.612Z,77.91
2023-01-17T19:04:57.168Z,78.27
2023-01-17T19:07:43.567Z,79.76
2023-01-17T19:10:31.867Z,77.92
2023-01-17T19:13:19.715Z,78.47
2023-01-17T19:16:08.847Z,75.34
2023-01-17T19:18:55.531Z,75.84
2023-01-17T19:21:43.703Z,77.13
2023-01-17T19:24:30.506Z,74.55
2023-01-17T19:27:15.441Z,80.62
2023-01-17T19:30:00.729Z,79.28
2023-01-17T19:32:46.885Z,76.22
2023-01-17T19:35:32.320Z,76.88
2023-01-17T19:38:23.210Z,77.02
2023-01-17T19:41:30.268Z,77.13
2023-01-17T19:44:19.026Z,76.30
2023-01-17T19:47:05.252Z,75.62
2023-01-17T19:49:50.938Z,75.45
2023-01-17T19:52:40.135Z,74.87
2023-01-17T19:55:26.452Z,75.36
2023-01-17T19:58:17.551Z,76.70
2023-01-17T20:01:12.868Z,75.90
2023-01-17T20:03:58.763Z,75.15
2023-01-17T20:06:45.688Z,75.11
2023-01-17T20:09:38.224Z,74.98
2023-01-17T20:12:24.748Z,72.15
2023-01-17T20:15:12.671Z,74.47
2023-01-17T20:17:59.198Z,80.42
2023-01-17T20:20:56.948Z,80.07
2023-01-17T20:23:43.989Z,79.23
2023-01-17T20:26:38.814Z,80.57
2023-01-17T20:29:25.519Z,80.02
2023-01-17T20:32:13.504Z,79.88
2023-01-17T20:34:58.639Z,81.68
2023-01-17T20:37:43.496Z,80.66
2023-01-17T20:40:28.761Z,78.89
2023-01-17T20:43:14.347Z,79.86
2023-01-17T20:45:59.239Z,81.56
2023-01-17T20:48:49.098Z,81.12
2023-01-17T20:51:34.568Z,80.69
2023-01-17T20:54:20.574Z,82.23
2023-01-17T20:57:06.267Z,81.81
2023-01-17T20:59:52.491Z,78.96
2023-01-17T21:02:37.383Z,81.58
2023-01-17T21:05:23.052Z,81.59
2023-01-17T21:08:09.256Z,83.37
2023-01-17T21:11:02.948Z,81.99
2023-01-17T21:13:51.557Z,81.65
2023-01-17T21:16:36.515Z,80.99
2023-01-17T21:19:24.284Z,75.80
2023-01-17T21:22:09.656Z,78.51
2023-01-17T21:24:54.503Z,78.11
2023-01-17T21:27:39.366Z,77.81
2023-01-17T21:30:24.378Z,76.22
2023-01-17T21:33:09.511Z,73.09
2023-01-17T21:35:54.507Z,78.35
2023-01-17T21:38:41.055Z,77.21
2023-01-17T21:41:28.775Z,78.43
2023-01-17T21:44:24.216Z,79.57
2023-01-17T21:47:09.277Z,79.85
2023-01-17T21:49:56.919Z,79.20
2023-01-17T21:52:42.142Z,79.36
2023-01-17T21:55:45.755Z,80.13
2023-01-17T21:58:46.088Z,80.70
2023-01-17T22:01:33.391Z,80.09
2023-01-17T22:04:18.555Z,81.26
2023-01-17T22:07:03.973Z,82.01
2023-01-17T22:09:49.705Z,82.25
2023-01-17T22:12:35.098Z,80.83
2023-01-17T22:15:20.044Z,84.38
2023-01-17T22:18:05.044Z,81.19
2023-01-17T22:20:50.293Z,80.27
2023-01-17T22:23:35.578Z,82.28
2023-01-17T22:26:24.383Z,83.21
2023-01-17T22:29:10.592Z,80.98
2023-01-17T22:31:55.645Z,84.08
2023-01-17T22:34:40.794Z,80.85
2023-01-17T22:37:26.914Z,82.35
2023-01-17T22:40:12.719Z,82.51
2023-01-17T22:42:58.399Z,80.58
2023-01-17T22:45:45.761Z,78.07
2023-01-17T22:48:33.215Z,82.27
2023-01-17T22:51:20.041Z,81.37
2023-01-17T22:54:05.669Z,79.93
2023-01-17T22:56:50.461Z,78.93
2023-01-17T22:59:35.629Z,82.43
2023-01-17T23:02:20.665Z,80.36
2023-01-17T23:05:07.376Z,79.66
2023-01-17T23:07:53.383Z,81.14
2023-01-17T23:11:01.431Z,80.25
2023-01-17T23:13:48.389Z,79.42
2023-01-17T23:16:52.159Z,76.68
2023-01-17T23:19:40.431Z,79.82
2023-01-17T23:22:27.507Z,81.74
2023-01-17T23:25:13.782Z,79.00
2023-01-17T23:28:11.117Z,79.93
2023-01-17T23:31:02.961Z,80.33
2023-01-17T23:33:49.084Z,82.94
2023-01-17T23:36:34.302Z,80.13
2023-01-17T23:39:19.195Z,78.95
2023-01-17T23:42:22.884Z,77.80
2023-01-17T23:45:10.093Z,76.51
2023-01-17T23:47:55.532Z,75.58
2023-01-17T23:50:44.296Z,75.71
2023-01-17T23:53:29.467Z,76.13
2023-01-17T23:56:18.491Z,75.54
2023-01-17T23:59:04.372Z,77.69
